Time;durP1;ratioP1;P1;durP2;ratioP2;P2;SDS_P1;SDS_P2;PMS_P1;PMS_P2;Temp;Humidity;BMP_temperature;BMP_pressure;BME280_temperature;BME280_humidity;BME280_pressure;Samples;Min_cycle;Max_cycle;Signal;HPM_P1;HPM_P2
2024/01/28 00:01:37;;;;;;;24.73;9.88;;;;;;;;;;5110525;28;20051;-70
2024/01/28 00:04:03;;;;;;;24.17;9.43;;;;;;;;;;5095449;28;20732;-71
2024/01/28 00:06:29;;;;;;;20.10;8.82;;;;;;;;;;5092098;28;20032;-71
2024/01/28 00:08:55;;;;;;;23.15;9.52;;;;;;;;;;5110936;28;20546;-71
2024/01/28 00:11:21;;;;;;;21.40;10.20;;;;;;;;;;5106642;28;20085;-71
2024/01/28 00:13:47;;;;;;;23.23;9.43;;;;;;;;;;5095891;28;20094;-71
2024/01/28 00:16:17;;;;;;;22.05;9.75;;;;;;;;;;5094489;28;20040;-71
2024/01/28 00:18:43;;;;;;;19.35;10.30;;;;;;;;;;5093623;28;20036;-71
2024/01/28 00:21:09;;;;;;;25.17;10.43;;;;;;;;;;5098385;28;20039;-70
2024/01/28 00:23:35;;;;;;;22.27;9.90;;;;;;;;;;5089612;28;20036;-70
2024/01/28 00:26:04;;;;;;;22.50;9.98;;;;;;;;;;5090052;28;20579;-70
2024/01/28 00:28:30;;;;;;;27.42;10.77;;;;;;;;;;5073217;28;20040;-70
2024/01/28 00:30:56;;;;;;;24.38;10.65;;;;;;;;;;5094192;28;20035;-70
2024/01/28 00:33:22;;;;;;;24.92;10.88;;;;;;;;;;5109710;28;20039;-70
2024/01/28 00:35:48;;;;;;;29.58;11.73;;;;;;;;;;5098030;28;20055;-70
2024/01/28 00:38:14;;;;;;;28.80;12.82;;;;;;;;;;5089531;28;20058;-70
2024/01/28 00:40:40;;;;;;;21.48;11.15;;;;;;;;;;5108432;28;20401;-70
2024/01/28 00:43:06;;;;;;;26.92;12.07;;;;;;;;;;5094654;28;20040;-70
2024/01/28 00:45:32;;;;;;;22.95;11.23;;;;;;;;;;5110255;28;20119;-70
2024/01/28 00:47:59;;;;;;;25.73;11.48;;;;;;;;;;5079872;28;20092;-70
2024/01/28 00:50:25;;;;;;;24.08;11.73;;;;;;;;;;5105070;28;20097;-70
2024/01/28 00:52:51;;;;;;;27.98;10.90;;;;;;;;;;5109629;28;20063;-70
2024/01/28 00:55:17;;;;;;;23.52;11.85;;;;;;;;;;5109449;28;20114;-70
2024/01/28 00:57:43;;;;;;;25.55;11.18;;;;;;;;;;5092972;28;20597;-70
2024/01/28 01:00:09;;;;;;;25.10;11.02;;;;;;;;;;5109472;28;20108;-70
2024/01/28 01:02:35;;;;;;;22.98;11.75;;;;;;;;;;5108608;28;20040;-70
2024/01/28 01:05:02;;;;;;;27.67;11.95;;;;;;;;;;5109641;28;20590;-70
2024/01/28 01:07:28;;;;;;;24.25;11.63;;;;;;;;;;5109454;28;20044;-70
2024/01/28 01:09:54;;;;;;;31.50;11.60;;;;;;;;;;5109233;28;20062;-70
2024/01/28 01:12:20;;;;;;;23.42;10.30;;;;;;;;;;5077374;28;20040;-70
2024/01/28 01:14:46;;;;;;;29.25;11.45;;;;;;;;;;5088765;28;20371;-70
2024/01/28 01:17:12;;;;;;;28.88;11.80;;;;;;;;;;5072161;28;20051;-70
2024/01/28 01:19:38;;;;;;;24.05;10.85;;;;;;;;;;5081057;28;20046;-70
2024/01/28 01:22:04;;;;;;;24.17;11.43;;;;;;;;;;5090180;28;20489;-70
2024/01/28 01:24:30;;;;;;;25.50;11.13;;;;;;;;;;5088512;28;20482;-70
2024/01/28 01:26:56;;;;;;;21.23;10.70;;;;;;;;;;5088977;28;20626;-70
2024/01/28 01:29:22;;;;;;;28.58;11.82;;;;;;;;;;5088337;28;20124;-70
2024/01/28 01:31:49;;;;;;;19.65;11.05;;;;;;;;;;5099518;28;20469;-70
2024/01/28 01:34:15;;;;;;;29.65;11.20;;;;;;;;;;5108343;28;20039;-70
2024/01/28 01:36:47;;;;;;;23.92;10.30;;;;;;;;;;5091597;28;20639;-70
2024/01/28 01:39:16;;;;;;;21.50;9.82;;;;;;;;;;5093748;28;20554;-70
2024/01/28 01:41:42;;;;;;;22.42;10.40;;;;;;;;;;5099872;28;20040;-70
2024/01/28 01:44:08;;;;;;;21.55;10.18;;;;;;;;;;5100665;28;20047;-70
2024/01/28 01:46:34;;;;;;;26.75;10.40;;;;;;;;;;5108858;28;20489;-71
2024/01/28 01:49:00;;;;;;;22.33;10.50;;;;;;;;;;5108349;28;20038;-71
2024/01/28 01:51:27;;;;;;;26.38;10.88;;;;;;;;;;5101951;28;20040;-71
2024/01/28 01:53:53;;;;;;;22.98;10.27;;;;;;;;;;5088525;28;20526;-70
2024/01/28 01:56:19;;;;;;;24.50;10.60;;;;;;;;;;5102082;28;20054;-70
2024/01/28 01:58:46;;;;;;;22.20;9.75;;;;;;;;;;5107946;28;20044;-70
2024/01/28 02:01:12;;;;;;;23.83;10.05;;;;;;;;;;5071137;28;20152;-70
2024/01/28 02:03:38;;;;;;;22.67;10.73;;;;;;;;;;5096295;28;20477;-70
2024/01/28 02:06:06;;;;;;;20.30;10.20;;;;;;;;;;5108415;28;20104;-70
2024/01/28 02:08:32;;;;;;;26.95;11.20;;;;;;;;;;5093043;28;20097;-70
2024/01/28 02:11:02;;;;;;;23.73;11.02;;;;;;;;;;5089850;28;20044;-70
2024/01/28 02:13:28;;;;;;;20.13;10.90;;;;;;;;;;5108614;28;20044;-70
2024/01/28 02:15:54;;;;;;;24.00;10.18;;;;;;;;;;5091423;28;20039;-71
2024/01/28 02:18:20;;;;;;;18.98;9.80;;;;;;;;;;5091205;28;20051;-70
2024/01/28 02:20:46;;;;;;;22.60;10.38;;;;;;;;;;5100721;28;20076;-71
2024/01/28 02:23:16;;;;;;;24.17;10.23;;;;;;;;;;5070774;28;20040;-70
2024/01/28 02:25:42;;;;;;;17.25;9.65;;;;;;;;;;5087887;28;20071;-70
2024/01/28 02:28:08;;;;;;;27.60;10.57;;;;;;;;;;5099365;28;20299;-70
2024/01/28 02:30:35;;;;;;;20.05;9.88;;;;;;;;;;5108044;28;20036;-70
2024/01/28 02:33:01;;;;;;;25.58;10.90;;;;;;;;;;5108341;28;20126;-70
2024/01/28 02:35:27;;;;;;;22.58;10.82;;;;;;;;;;5102445;28;20055;-70
2024/01/28 02:37:54;;;;;;;19.95;9.30;;;;;;;;;;5087985;28;20079;-70
2024/01/28 02:40:20;;;;;;;21.25;9.82;;;;;;;;;;5101969;28;20052;-70
2024/01/28 02:42:46;;;;;;;20.40;10.60;;;;;;;;;;5090920;28;20032;-70
2024/01/28 02:45:12;;;;;;;20.35;9.60;;;;;;;;;;5107330;28;20477;-70
2024/01/28 02:47:38;;;;;;;24.33;9.80;;;;;;;;;;5091389;28;20040;-70
2024/01/28 02:50:04;;;;;;;23.75;9.38;;;;;;;;;;5090749;28;20043;-70
2024/01/28 02:52:30;;;;;;;20.23;10.18;;;;;;;;;;5108205;28;20393;-70
2024/01/28 02:54:56;;;;;;;23.25;10.27;;;;;;;;;;5107212;28;20546;-70
2024/01/28 02:57:22;;;;;;;26.85;10.45;;;;;;;;;;5088125;28;20040;-70
2024/01/28 02:59:49;;;;;;;24.73;9.70;;;;;;;;;;5094908;28;20052;-70
2024/01/28 03:02:16;;;;;;;21.48;10.23;;;;;;;;;;5107852;28;20075;-69
2024/01/28 03:04:42;;;;;;;21.30;9.55;;;;;;;;;;5093091;28;20127;-70
2024/01/28 03:07:08;;;;;;;23.83;10.40;;;;;;;;;;5089239;28;20210;-70
2024/01/28 03:09:34;;;;;;;22.55;9.57;;;;;;;;;;5107549;28;20093;-70
2024/01/28 03:12:00;;;;;;;32.75;9.43;;;;;;;;;;5099514;28;20036;-70
2024/01/28 03:14:26;;;;;;;19.67;9.05;;;;;;;;;;5070975;28;20131;-71
2024/01/28 03:16:53;;;;;;;27.08;9.88;;;;;;;;;;5103127;28;20039;-70
2024/01/28 03:19:19;;;;;;;23.13;9.27;;;;;;;;;;5090966;28;20051;-70
2024/01/28 03:21:45;;;;;;;23.50;10.00;;;;;;;;;;5090679;28;20710;-70
2024/01/28 03:24:11;;;;;;;18.25;9.10;;;;;;;;;;5098263;28;20032;-70
2024/01/28 03:26:37;;;;;;;18.63;9.00;;;;;;;;;;5091043;28;20434;-69
2024/01/28 03:29:04;;;;;;;31.55;9.48;;;;;;;;;;5090428;28;20040;-70
2024/01/28 03:31:30;;;;;;;21.55;8.98;;;;;;;;;;5095466;28;20046;-70
2024/01/28 03:33:57;;;;;;;25.38;9.00;;;;;;;;;;5111268;28;20583;-70
2024/01/28 03:36:23;;;;;;;21.05;9.10;;;;;;;;;;5099552;28;20055;-70
2024/01/28 03:38:49;;;;;;;22.02;9.27;;;;;;;;;;5093156;28;20394;-70
2024/01/28 03:41:15;;;;;;;20.88;8.82;;;;;;;;;;5105790;28;20173;-70
2024/01/28 03:43:46;;;;;;;22.73;8.93;;;;;;;;;;5096352;28;20043;-70
2024/01/28 03:46:12;;;;;;;19.55;9.48;;;;;;;;;;5110883;28;20040;-70
2024/01/28 03:48:38;;;;;;;19.80;8.20;;;;;;;;;;5110801;28;20176;-70
2024/01/28 03:51:04;;;;;;;17.90;8.52;;;;;;;;;;5110631;28;20514;-70
2024/01/28 03:53:30;;;;;;;22.58;8.25;;;;;;;;;;5090802;28;20129;-70
2024/01/28 03:55:56;;;;;;;21.35;8.45;;;;;;;;;;5089862;28;20055;-70
2024/01/28 03:58:22;;;;;;;19.85;8.15;;;;;;;;;;5090831;28;20056;-70
2024/01/28 04:00:48;;;;;;;20.70;8.13;;;;;;;;;;5103728;28;20436;-70
2024/01/28 04:03:14;;;;;;;18.58;8.90;;;;;;;;;;5111057;28;20128;-70
2024/01/28 04:05:42;;;;;;;24.80;9.25;;;;;;;;;;5110156;28;20038;-70
2024/01/28 04:08:11;;;;;;;18.70;8.32;;;;;;;;;;5102583;28;20079;-70
2024/01/28 04:10:40;;;;;;;22.30;7.97;;;;;;;;;;5090329;28;20075;-70
2024/01/28 04:13:06;;;;;;;22.50;8.70;;;;;;;;;;5106723;28;20079;-70
2024/01/28 04:15:32;;;;;;;20.23;8.73;;;;;;;;;;5110865;28;20132;-70
2024/01/28 04:17:58;;;;;;;19.20;8.85;;;;;;;;;;5093309;28;20035;-70
2024/01/28 04:20:24;;;;;;;25.35;9.32;;;;;;;;;;5110223;28;20046;-70
2024/01/28 04:22:50;;;;;;;26.42;9.52;;;;;;;;;;5110266;28;20039;-70
2024/01/28 04:25:18;;;;;;;23.90;8.82;;;;;;;;;;5092609;28;20127;-70
2024/01/28 04:27:44;;;;;;;20.40;9.13;;;;;;;;;;5089215;28;20097;-69
2024/01/28 04:30:10;;;;;;;20.52;8.73;;;;;;;;;;5089962;28;20036;-70
2024/01/28 04:32:36;;;;;;;20.73;8.50;;;;;;;;;;5101085;28;20078;-70
2024/01/28 04:35:02;;;;;;;17.50;8.75;;;;;;;;;;5110203;28;20067;-71
2024/01/28 04:37:29;;;;;;;18.92;7.88;;;;;;;;;;5092577;28;20448;-70
2024/01/28 04:39:55;;;;;;;20.88;8.18;;;;;;;;;;5103877;28;20066;-70
2024/01/28 04:42:22;;;;;;;20.92;8.52;;;;;;;;;;5103690;28;20043;-70
2024/01/28 04:44:48;;;;;;;24.55;9.40;;;;;;;;;;5110242;28;20078;-70
2024/01/28 04:47:14;;;;;;;18.33;8.30;;;;;;;;;;5109677;28;20051;-70
2024/01/28 04:49:40;;;;;;;25.13;8.63;;;;;;;;;;5109963;28;20040;-70
2024/01/28 04:52:06;;;;;;;25.83;8.50;;;;;;;;;;5092690;28;20496;-70
2024/01/28 04:54:33;;;;;;;16.17;8.55;;;;;;;;;;5110070;28;20050;-71
2024/01/28 04:57:01;;;;;;;16.17;8.55;;;;;;;;;;5095157;28;20397;-70
2024/01/28 04:59:27;;;;;;;16.90;8.57;;;;;;;;;;5090185;28;20044;-70
2024/01/28 05:01:53;;;;;;;23.40;8.80;;;;;;;;;;5109680;28;20094;-70
2024/01/28 05:04:19;;;;;;;19.98;8.65;;;;;;;;;;5101652;28;20036;-70
2024/01/28 05:06:45;;;;;;;16.50;7.82;;;;;;;;;;5071737;28;20036;-70
2024/01/28 05:09:12;;;;;;;19.15;8.63;;;;;;;;;;5104673;28;20673;-71
2024/01/28 05:11:38;;;;;;;19.02;7.88;;;;;;;;;;5109571;28;20044;-71
2024/01/28 05:14:04;;;;;;;20.65;8.52;;;;;;;;;;5109364;28;20568;-71
2024/01/28 05:16:31;;;;;;;17.90;7.43;;;;;;;;;;5099368;28;20047;-71
2024/01/28 05:18:57;;;;;;;16.70;7.85;;;;;;;;;;5089413;28;20599;-71
2024/01/28 05:21:23;;;;;;;19.83;8.38;;;;;;;;;;5090369;28;20509;-71
2024/01/28 05:23:52;;;;;;;20.48;8.20;;;;;;;;;;5092004;28;20408;-71
2024/01/28 05:26:18;;;;;;;19.02;7.85;;;;;;;;;;5108823;28;20043;-69
2024/01/28 05:28:45;;;;;;;17.90;7.68;;;;;;;;;;5097625;28;20051;-70
2024/01/28 05:31:11;;;;;;;20.17;7.28;;;;;;;;;;5088396;28;20042;-70
2024/01/28 05:33:37;;;;;;;20.17;8.40;;;;;;;;;;5089906;28;20086;-70
2024/01/28 05:36:13;;;;;;;17.67;6.93;;;;;;;;;;5092195;28;20122;-70
2024/01/28 05:38:39;;;;;;;19.45;7.78;;;;;;;;;;5108289;28;20057;-70
2024/01/28 05:41:09;;;;;;;20.10;7.68;;;;;;;;;;5104979;28;20047;-70
2024/01/28 05:43:35;;;;;;;18.92;7.38;;;;;;;;;;5072951;28;20070;-70
2024/01/28 05:46:01;;;;;;;17.50;7.88;;;;;;;;;;5108957;28;20039;-69
2024/01/28 05:48:27;;;;;;;15.13;7.30;;;;;;;;;;5108203;28;20055;-69
2024/01/28 05:50:53;;;;;;;19.00;7.15;;;;;;;;;;5091516;28;20051;-69
2024/01/28 05:53:19;;;;;;;19.25;7.55;;;;;;;;;;5108795;28;20043;-70
2024/01/28 05:55:45;;;;;;;16.08;7.10;;;;;;;;;;5109135;28;20121;-69
2024/01/28 05:58:11;;;;;;;22.98;7.32;;;;;;;;;;5104795;28;20040;-70
2024/01/28 06:00:37;;;;;;;16.35;6.68;;;;;;;;;;5087916;28;20060;-70
2024/01/28 06:03:04;;;;;;;17.83;7.78;;;;;;;;;;5103961;28;20050;-70
2024/01/28 06:05:30;;;;;;;19.20;7.57;;;;;;;;;;5109049;28;20671;-70
2024/01/28 06:07:56;;;;;;;16.13;6.75;;;;;;;;;;5105357;28;20039;-70
2024/01/28 06:10:22;;;;;;;15.48;7.53;;;;;;;;;;5088577;28;20051;-70
2024/01/28 06:12:48;;;;;;;13.10;6.72;;;;;;;;;;5088133;28;20128;-70
2024/01/28 06:15:14;;;;;;;19.58;7.20;;;;;;;;;;5088298;28;20116;-70
2024/01/28 06:17:40;;;;;;;15.27;6.72;;;;;;;;;;5105369;28;20047;-70
2024/01/28 06:20:07;;;;;;;17.88;7.00;;;;;;;;;;5090894;28;20088;-70
2024/01/28 06:22:33;;;;;;;17.20;7.55;;;;;;;;;;5108194;28;20497;-70
2024/01/28 06:24:59;;;;;;;21.15;7.60;;;;;;;;;;5091657;28;20051;-70
2024/01/28 06:27:25;;;;;;;23.67;7.10;;;;;;;;;;5108523;28;20125;-70
2024/01/28 06:29:52;;;;;;;13.50;6.25;;;;;;;;;;5071931;28;20040;-70
2024/01/28 06:32:21;;;;;;;18.27;6.72;;;;;;;;;;5093575;28;20048;-70
2024/01/28 06:34:47;;;;;;;17.10;6.47;;;;;;;;;;5108772;28;20051;-70
2024/01/28 06:37:13;;;;;;;17.48;6.80;;;;;;;;;;5108504;28;20052;-70
2024/01/28 06:39:39;;;;;;;21.33;7.03;;;;;;;;;;5107828;28;20136;-70
2024/01/28 06:42:05;;;;;;;17.30;6.85;;;;;;;;;;5096109;28;20067;-70
2024/01/28 06:44:32;;;;;;;14.07;7.32;;;;;;;;;;5094875;28;20535;-70
2024/01/28 06:46:59;;;;;;;17.77;7.05;;;;;;;;;;5107986;28;20039;-70
2024/01/28 06:49:25;;;;;;;23.30;7.55;;;;;;;;;;5102045;28;20496;-70
2024/01/28 06:51:51;;;;;;;14.85;6.80;;;;;;;;;;5107566;28;20043;-70
2024/01/28 06:54:21;;;;;;;12.38;6.97;;;;;;;;;;5091404;28;20135;-70
2024/01/28 06:56:48;;;;;;;13.75;7.75;;;;;;;;;;5108258;28;20043;-70
2024/01/28 06:59:14;;;;;;;17.60;7.80;;;;;;;;;;5109560;28;20047;-70
2024/01/28 07:01:41;;;;;;;20.83;7.28;;;;;;;;;;5112064;28;20471;-71
2024/01/28 07:04:07;;;;;;;17.13;7.03;;;;;;;;;;5111554;28;20054;-70
2024/01/28 07:06:33;;;;;;;18.95;7.57;;;;;;;;;;5112302;28;20078;-70
2024/01/28 07:08:59;;;;;;;19.13;7.90;;;;;;;;;;5101014;28;20068;-70
2024/01/28 07:11:25;;;;;;;15.52;6.90;;;;;;;;;;5074482;28;20082;-71
2024/01/28 07:13:51;;;;;;;18.58;7.90;;;;;;;;;;5091407;28;20425;-70
2024/01/28 07:16:17;;;;;;;18.58;7.60;;;;;;;;;;5095473;28;20654;-70
2024/01/28 07:18:43;;;;;;;20.52;7.25;;;;;;;;;;5111233;28;20093;-70
2024/01/28 07:21:10;;;;;;;14.00;7.28;;;;;;;;;;5100079;28;20490;-71
2024/01/28 07:23:36;;;;;;;13.70;8.27;;;;;;;;;;5091252;28;20063;-70
2024/01/28 07:26:02;;;;;;;21.05;7.82;;;;;;;;;;5091194;28;20063;-70
2024/01/28 07:28:28;;;;;;;19.33;8.07;;;;;;;;;;5090775;28;20032;-70
2024/01/28 07:30:54;;;;;;;17.52;7.55;;;;;;;;;;5089988;28;20047;-70
2024/01/28 07:33:21;;;;;;;15.70;8.20;;;;;;;;;;5103243;28;20035;-70
2024/01/28 07:35:46;;;;;;;19.25;8.27;;;;;;;;;;5111281;28;20109;-70
2024/01/28 07:38:13;;;;;;;17.63;7.40;;;;;;;;;;5111124;28;20043;-70
2024/01/28 07:40:39;;;;;;;18.42;8.38;;;;;;;;;;5086812;28;20048;-70
2024/01/28 07:43:05;;;;;;;20.25;7.78;;;;;;;;;;5111036;28;20048;-70
2024/01/28 07:45:36;;;;;;;13.82;8.48;;;;;;;;;;5094091;28;20435;-71
2024/01/28 07:48:02;;;;;;;14.73;7.88;;;;;;;;;;5111148;28;20088;-70
2024/01/28 07:50:29;;;;;;;16.58;8.55;;;;;;;;;;5093314;28;20039;-70
2024/01/28 07:52:55;;;;;;;16.90;8.52;;;;;;;;;;5110726;28;20042;-70
2024/01/28 07:55:21;;;;;;;15.43;8.32;;;;;;;;;;5111076;28;20035;-70
2024/01/28 07:57:47;;;;;;;16.85;9.00;;;;;;;;;;5110642;28;20039;-70
2024/01/28 08:00:13;;;;;;;18.30;8.48;;;;;;;;;;5108307;28;20047;-70
2024/01/28 08:02:39;;;;;;;16.33;8.73;;;;;;;;;;5090236;28;20051;-71
2024/01/28 08:05:05;;;;;;;16.50;7.78;;;;;;;;;;5099806;28;20043;-70
2024/01/28 08:07:32;;;;;;;17.45;8.40;;;;;;;;;;5110433;28;20039;-70
2024/01/28 08:09:58;;;;;;;16.35;8.35;;;;;;;;;;5076132;28;20047;-70
2024/01/28 08:12:24;;;;;;;14.02;8.20;;;;;;;;;;5073166;28;20059;-70
2024/01/28 08:14:49;;;;;;;17.42;8.75;;;;;;;;;;5090578;28;20036;-71
2024/01/28 08:17:15;;;;;;;18.70;9.18;;;;;;;;;;5083743;28;20065;-70
2024/01/28 08:19:42;;;;;;;13.55;7.88;;;;;;;;;;5092928;28;20154;-70
2024/01/28 08:22:08;;;;;;;14.93;8.30;;;;;;;;;;5075729;28;20036;-70
2024/01/28 08:24:34;;;;;;;20.98;9.63;;;;;;;;;;5077672;28;20085;-70
2024/01/28 08:27:00;;;;;;;16.70;8.10;;;;;;;;;;5094676;28;20044;-70
2024/01/28 08:29:26;;;;;;;18.08;9.02;;;;;;;;;;5098495;28;20092;-70
2024/01/28 08:31:52;;;;;;;19.15;9.65;;;;;;;;;;5109814;28;20046;-71
2024/01/28 08:34:18;;;;;;;14.88;9.00;;;;;;;;;;5091534;28;20475;-70
2024/01/28 08:36:44;;;;;;;14.40;8.13;;;;;;;;;;5095046;28;20036;-70
2024/01/28 08:39:10;;;;;;;14.18;7.85;;;;;;;;;;5109952;28;20175;-70
2024/01/28 08:41:36;;;;;;;21.63;8.60;;;;;;;;;;5101986;28;20051;-71
2024/01/28 08:44:04;;;;;;;20.85;8.55;;;;;;;;;;5072893;28;20517;-70
2024/01/28 08:46:30;;;;;;;17.83;8.10;;;;;;;;;;5089882;28;20047;-70
2024/01/28 08:48:56;;;;;;;14.63;8.50;;;;;;;;;;5096344;28;20031;-69
2024/01/28 08:51:22;;;;;;;14.73;7.78;;;;;;;;;;5108903;28;20070;-69
2024/01/28 08:53:48;;;;;;;16.27;7.70;;;;;;;;;;5098245;28;20474;-70
2024/01/28 08:56:14;;;;;;;12.15;7.30;;;;;;;;;;5089670;28;20065;-70
2024/01/28 08:58:40;;;;;;;15.57;8.15;;;;;;;;;;5089116;28;20082;-69
2024/01/28 09:01:07;;;;;;;11.30;7.15;;;;;;;;;;5096162;28;20432;-70
2024/01/28 09:03:33;;;;;;;16.50;7.50;;;;;;;;;;5110040;28;20500;-70
2024/01/28 09:06:02;;;;;;;18.55;8.18;;;;;;;;;;5109611;28;20036;-70
2024/01/28 09:08:31;;;;;;;16.75;7.93;;;;;;;;;;5109602;28;20071;-70
2024/01/28 09:10:57;;;;;;;14.18;7.35;;;;;;;;;;5109099;28;20126;-70
2024/01/28 09:13:24;;;;;;;17.58;7.80;;;;;;;;;;5099721;28;20040;-70
2024/01/28 09:15:50;;;;;;;18.23;6.80;;;;;;;;;;5089240;28;20088;-70
2024/01/28 09:18:16;;;;;;;16.92;7.70;;;;;;;;;;5106026;28;20180;-70
2024/01/28 09:20:42;;;;;;;18.58;7.10;;;;;;;;;;5101211;28;20043;-70
2024/01/28 09:23:08;;;;;;;16.65;6.80;;;;;;;;;;5088212;28;20553;-70
2024/01/28 09:25:35;;;;;;;16.95;6.53;;;;;;;;;;5083278;28;20031;-70
2024/01/28 09:28:03;;;;;;;13.35;6.18;;;;;;;;;;5109104;28;20043;-70
2024/01/28 09:30:29;;;;;;;14.35;6.63;;;;;;;;;;5090151;28;20050;-70
2024/01/28 09:32:55;;;;;;;10.95;5.85;;;;;;;;;;5094246;28;20079;-70
2024/01/28 09:35:21;;;;;;;12.18;6.30;;;;;;;;;;5109367;28;20140;-70
2024/01/28 09:37:48;;;;;;;11.38;5.68;;;;;;;;;;5109138;28;20706;-71
2024/01/28 09:40:14;;;;;;;11.20;5.97;;;;;;;;;;5108616;28;20043;-71
2024/01/28 09:42:43;;;;;;;11.88;6.07;;;;;;;;;;5091382;28;20040;-71
2024/01/28 09:45:09;;;;;;;12.55;5.95;;;;;;;;;;5095399;28;20039;-70
2024/01/28 09:47:36;;;;;;;10.98;5.22;;;;;;;;;;5108891;28;20031;-70
2024/01/28 09:50:04;;;;;;;10.15;5.47;;;;;;;;;;5108281;28;20062;-70
2024/01/28 09:52:31;;;;;;;16.77;6.07;;;;;;;;;;5108415;28;20039;-70
2024/01/28 09:54:57;;;;;;;10.38;5.18;;;;;;;;;;5091902;28;20097;-70
2024/01/28 09:57:23;;;;;;;11.63;5.45;;;;;;;;;;5109012;28;20150;-70
2024/01/28 09:59:50;;;;;;;15.45;5.40;;;;;;;;;;5108455;28;20091;-71
2024/01/28 10:02:17;;;;;;;12.75;5.22;;;;;;;;;;5092331;28;20048;-70
2024/01/28 10:04:45;;;;;;;9.30;5.28;;;;;;;;;;5091020;28;20077;-71
2024/01/28 10:07:12;;;;;;;10.48;5.13;;;;;;;;;;5091808;28;20032;-70
2024/01/28 10:09:38;;;;;;;10.32;5.30;;;;;;;;;;5108465;28;20046;-70
2024/01/28 10:12:04;;;;;;;9.18;5.20;;;;;;;;;;5099959;28;20042;-70
2024/01/28 10:14:30;;;;;;;11.07;4.68;;;;;;;;;;5088340;28;20122;-70
2024/01/28 10:16:59;;;;;;;8.13;4.85;;;;;;;;;;5075596;28;20462;-71
2024/01/28 10:19:25;;;;;;;11.05;5.15;;;;;;;;;;5108564;28;20492;-71
2024/01/28 10:21:52;;;;;;;13.38;5.25;;;;;;;;;;5085838;28;20048;-71
2024/01/28 10:24:18;;;;;;;10.77;5.05;;;;;;;;;;5108945;28;20071;-71
2024/01/28 10:26:44;;;;;;;8.93;4.90;;;;;;;;;;5089145;28;20094;-71
2024/01/28 10:29:10;;;;;;;10.35;4.63;;;;;;;;;;5071144;28;20059;-72
2024/01/28 10:31:37;;;;;;;13.57;5.05;;;;;;;;;;5087641;28;20042;-71
2024/01/28 10:34:03;;;;;;;8.88;4.97;;;;;;;;;;5091718;28;20040;-71
2024/01/28 10:36:32;;;;;;;12.00;4.93;;;;;;;;;;5092287;28;20043;-71
2024/01/28 10:39:01;;;;;;;9.57;4.68;;;;;;;;;;5095683;28;20043;-71
2024/01/28 10:41:29;;;;;;;11.07;4.82;;;;;;;;;;5105215;28;20085;-71
2024/01/28 10:44:15;;;;;;;9.75;5.32;;;;;;;;;;5092331;28;20561;-69
2024/01/28 10:46:42;;;;;;;10.07;5.22;;;;;;;;;;5110136;28;20036;-69
2024/01/28 10:49:09;;;;;;;10.45;4.80;;;;;;;;;;5111539;28;20043;-69
2024/01/28 10:51:40;;;;;;;9.43;4.32;;;;;;;;;;5111674;28;20039;-71
2024/01/28 10:54:10;;;;;;;10.07;4.60;;;;;;;;;;5094749;28;20441;-70
2024/01/28 10:56:40;;;;;;;11.45;4.38;;;;;;;;;;5112447;28;20090;-70
2024/01/28 10:59:06;;;;;;;10.02;4.43;;;;;;;;;;5091509;28;20075;-70
2024/01/28 11:01:33;;;;;;;9.10;4.05;;;;;;;;;;5081302;28;20052;-70
2024/01/28 11:04:00;;;;;;;10.70;4.10;;;;;;;;;;5111567;28;20042;-70
2024/01/28 11:06:32;;;;;;;9.95;4.18;;;;;;;;;;5112030;28;20694;-70
2024/01/28 11:08:58;;;;;;;15.57;5.00;;;;;;;;;;5109720;28;20088;-70
2024/01/28 11:11:24;;;;;;;5.85;4.03;;;;;;;;;;5091313;28;20044;-71
2024/01/28 11:13:51;;;;;;;9.80;3.88;;;;;;;;;;5091344;28;20040;-71
2024/01/28 11:16:19;;;;;;;8.73;3.95;;;;;;;;;;5091435;28;20039;-71
2024/01/28 11:18:58;;;;;;;7.18;4.10;;;;;;;;;;5108496;28;20051;-71
2024/01/28 11:21:25;;;;;;;10.82;4.07;;;;;;;;;;5098079;28;20119;-71
2024/01/28 11:23:53;;;;;;;13.70;5.00;;;;;;;;;;5074069;28;20039;-71
2024/01/28 11:26:20;;;;;;;7.95;4.10;;;;;;;;;;5094817;28;20040;-71
2024/01/28 11:28:49;;;;;;;6.70;3.70;;;;;;;;;;5091224;28;20040;-71
2024/01/28 11:31:42;;;;;;;10.75;4.07;;;;;;;;;;5091069;28;20557;-71
2024/01/28 11:34:14;;;;;;;7.10;3.58;;;;;;;;;;5088783;28;20153;-71
2024/01/28 11:36:42;;;;;;;9.25;4.43;;;;;;;;;;5090656;28;20052;-71
2024/01/28 11:39:12;;;;;;;9.35;3.65;;;;;;;;;;5110070;28;20031;-71
2024/01/28 11:41:38;;;;;;;9.15;3.65;;;;;;;;;;5109715;28;20050;-71
2024/01/28 11:44:07;;;;;;;9.93;3.88;;;;;;;;;;5110988;28;20039;-71
2024/01/28 11:46:34;;;;;;;10.45;4.25;;;;;;;;;;5093055;28;20031;-71
2024/01/28 11:49:00;;;;;;;8.10;3.03;;;;;;;;;;5109755;28;20080;-71
2024/01/28 11:51:31;;;;;;;6.57;3.20;;;;;;;;;;5090766;28;20568;-71
2024/01/28 11:53:59;;;;;;;8.35;3.42;;;;;;;;;;5099280;28;20052;-71
2024/01/28 11:56:25;;;;;;;5.18;2.90;;;;;;;;;;5111427;28;20047;-70
2024/01/28 11:58:51;;;;;;;4.93;2.70;;;;;;;;;;5110770;28;20382;-69
2024/01/28 12:01:17;;;;;;;5.72;2.97;;;;;;;;;;5110597;28;20083;-70
2024/01/28 12:03:43;;;;;;;9.45;3.45;;;;;;;;;;5110306;28;20448;-69
2024/01/28 12:06:09;;;;;;;7.65;2.50;;;;;;;;;;5110556;28;20429;-70
2024/01/28 12:08:39;;;;;;;10.77;3.13;;;;;;;;;;5111104;28;20508;-70
2024/01/28 12:11:06;;;;;;;5.70;3.08;;;;;;;;;;5110334;28;20054;-71
2024/01/28 12:13:32;;;;;;;6.63;3.10;;;;;;;;;;5094431;28;20039;-71
2024/01/28 12:15:59;;;;;;;9.07;3.15;;;;;;;;;;5111001;28;20039;-71
2024/01/28 12:18:32;;;;;;;7.60;3.33;;;;;;;;;;5098104;28;20051;-71
2024/01/28 12:20:58;;;;;;;5.30;2.47;;;;;;;;;;5072948;28;20036;-70
2024/01/28 12:23:24;;;;;;;5.90;2.53;;;;;;;;;;5093479;28;20386;-71
2024/01/28 12:25:50;;;;;;;6.85;2.83;;;;;;;;;;5104441;28;20390;-71
2024/01/28 12:28:16;;;;;;;5.63;2.55;;;;;;;;;;5073395;28;20566;-70
2024/01/28 12:30:42;;;;;;;4.88;2.10;;;;;;;;;;5104200;28;20188;-70
2024/01/28 12:33:08;;;;;;;4.68;2.22;;;;;;;;;;5109702;28;20489;-71
2024/01/28 12:35:34;;;;;;;3.63;2.53;;;;;;;;;;5093545;28;20047;-71
2024/01/28 12:38:00;;;;;;;8.70;4.57;;;;;;;;;;5093187;28;20604;-70
2024/01/28 12:40:26;;;;;;;36.05;19.42;;;;;;;;;;5109636;28;20123;-71
2024/01/28 12:42:52;;;;;;;33.72;18.92;;;;;;;;;;5107135;28;20051;-71
2024/01/28 12:45:18;;;;;;;11.20;5.18;;;;;;;;;;5110171;28;20458;-71
2024/01/28 12:47:44;;;;;;;5.93;3.42;;;;;;;;;;5093190;28;20035;-71
2024/01/28 12:50:10;;;;;;;9.05;3.58;;;;;;;;;;5109816;28;20049;-71
2024/01/28 12:52:36;;;;;;;6.90;2.80;;;;;;;;;;5110088;28;20035;-71
2024/01/28 12:55:03;;;;;;;6.00;2.80;;;;;;;;;;5092620;28;20142;-71
2024/01/28 12:57:29;;;;;;;10.90;3.00;;;;;;;;;;5106509;28;20044;-71
2024/01/28 12:59:55;;;;;;;7.07;2.55;;;;;;;;;;5072150;28;20066;-71
2024/01/28 13:02:21;;;;;;;5.82;2.33;;;;;;;;;;5099543;28;20128;-71
2024/01/28 13:04:48;;;;;;;5.10;2.20;;;;;;;;;;5109567;28;20096;-71
2024/01/28 13:07:14;;;;;;;19.20;10.70;;;;;;;;;;5091982;28;20071;-71
2024/01/28 13:09:40;;;;;;;10.90;5.00;;;;;;;;;;5093610;28;20040;-71
2024/01/28 13:12:06;;;;;;;4.45;2.80;;;;;;;;;;5109606;28;20043;-70
2024/01/28 13:14:32;;;;;;;6.45;2.70;;;;;;;;;;5097142;28;20040;-71
2024/01/28 13:16:59;;;;;;;5.63;2.65;;;;;;;;;;5072136;28;20367;-71
2024/01/28 13:19:25;;;;;;;6.95;2.70;;;;;;;;;;5107933;28;20388;-71
2024/01/28 13:21:51;;;;;;;8.52;2.70;;;;;;;;;;5092270;28;20051;-72
2024/01/28 13:24:17;;;;;;;6.18;3.15;;;;;;;;;;5071867;28;20032;-71
2024/01/28 13:26:43;;;;;;;4.43;2.50;;;;;;;;;;5102167;28;20042;-71
2024/01/28 13:29:09;;;;;;;4.50;2.33;;;;;;;;;;5109403;28;20195;-71
2024/01/28 13:31:35;;;;;;;6.85;2.40;;;;;;;;;;5108913;28;20079;-71
2024/01/28 13:34:01;;;;;;;4.93;2.28;;;;;;;;;;5101577;28;20071;-71
2024/01/28 13:36:27;;;;;;;3.80;2.20;;;;;;;;;;5089049;28;20044;-71
2024/01/28 13:38:53;;;;;;;11.38;4.57;;;;;;;;;;5102378;28;20039;-71
2024/01/28 13:41:19;;;;;;;8.70;3.63;;;;;;;;;;5103681;28;20048;-71
2024/01/28 13:43:45;;;;;;;7.53;3.20;;;;;;;;;;5108728;28;20078;-71
2024/01/28 13:46:11;;;;;;;5.03;3.05;;;;;;;;;;5108558;28;20118;-71
2024/01/28 13:48:37;;;;;;;5.40;2.42;;;;;;;;;;5108866;28;20032;-71
2024/01/28 13:51:03;;;;;;;3.63;2.05;;;;;;;;;;5108768;28;20035;-71
2024/01/28 13:53:30;;;;;;;3.35;1.85;;;;;;;;;;5108445;28;20044;-71
2024/01/28 13:55:56;;;;;;;3.83;1.98;;;;;;;;;;5091811;28;20083;-71
2024/01/28 13:58:22;;;;;;;6.72;2.35;;;;;;;;;;5108400;28;20071;-71
2024/01/28 14:00:48;;;;;;;5.57;2.13;;;;;;;;;;5108305;28;20055;-72
2024/01/28 14:03:14;;;;;;;7.28;1.98;;;;;;;;;;5092314;28;20040;-72
2024/01/28 14:05:41;;;;;;;2.85;1.88;;;;;;;;;;5090675;28;20067;-71
2024/01/28 14:08:08;;;;;;;5.90;2.30;;;;;;;;;;5108372;28;20111;-71
2024/01/28 14:10:34;;;;;;;8.13;2.55;;;;;;;;;;5108402;28;20127;-72
2024/01/28 14:13:00;;;;;;;4.90;2.13;;;;;;;;;;5108414;28;20473;-71
2024/01/28 14:15:26;;;;;;;3.45;1.98;;;;;;;;;;5090605;28;20040;-71
2024/01/28 14:17:52;;;;;;;5.63;2.35;;;;;;;;;;5092121;28;20427;-71
2024/01/28 14:20:18;;;;;;;3.78;2.08;;;;;;;;;;5104801;28;20083;-71
2024/01/28 14:22:44;;;;;;;4.28;1.90;;;;;;;;;;5087998;28;20497;-71
2024/01/28 14:25:10;;;;;;;5.97;2.13;;;;;;;;;;5087562;28;20087;-71
2024/01/28 14:27:36;;;;;;;4.78;2.10;;;;;;;;;;5088196;28;20032;-71